createdAt,value
2023-04-02T00:03:45.310Z,73.85
2023-04-02T00:06:33.156Z,72.70
2023-04-02T00:09:13.569Z,72.94
2023-04-02T00:11:49.169Z,72.42
2023-04-02T00:14:33.566Z,72.43
2023-04-02T00:17:05.039Z,73.82
2023-04-02T00:19:38.321Z,72.40
2023-04-02T00:22:09.669Z,72.39
2023-04-02T00:24:40.120Z,71.73
2023-04-02T00:27:12.340Z,71.92
2023-04-02T00:29:50.793Z,72.35
2023-04-02T00:32:22.480Z,71.53
2023-04-02T00:34:50.017Z,72.98
2023-04-02T00:37:23.868Z,73.83
2023-04-02T00:40:02.656Z,73.91
2023-04-02T00:42:34.491Z,73.21
2023-04-02T00:45:06.629Z,72.66
2023-04-02T00:47:37.651Z,73.46
2023-04-02T00:50:16.909Z,73.88
2023-04-02T00:52:48.251Z,74.30
2023-04-02T00:55:21.748Z,73.36
2023-04-02T00:57:52.992Z,72.78
2023-04-02T01:00:32.372Z,73.83
2023-04-02T01:03:17.923Z,73.62
2023-04-02T01:05:51.174Z,72.27
2023-04-02T01:08:29.738Z,72.72
2023-04-02T01:11:29.024Z,72.06
2023-04-02T01:14:02.943Z,73.14
2023-04-02T01:16:37.011Z,72.43
2023-04-02T01:19:44.387Z,73.20
2023-04-02T01:22:31.018Z,72.20
2023-04-02T01:24:58.544Z,71.80
2023-04-02T01:27:51.951Z,72.67
2023-04-02T01:30:21.202Z,71.99
2023-04-02T01:32:51.312Z,70.87
2023-04-02T01:35:19.456Z,70.60
2023-04-02T01:37:59.126Z,69.54
2023-04-02T01:40:35.272Z,68.94
2023-04-02T01:43:35.263Z,69.55
2023-04-02T01:46:24.363Z,69.33
2023-04-02T01:48:57.410Z,69.83
2023-04-02T01:51:33.822Z,70.34
2023-04-02T01:54:14.506Z,70.88
2023-04-02T01:56:42.870Z,71.63
2023-04-02T01:59:11.644Z,70.47
2023-04-02T02:01:51.855Z,71.01
2023-04-02T02:04:22.900Z,71.26
2023-04-02T02:06:51.173Z,70.79
2023-04-02T02:09:32.772Z,68.81
2023-04-02T02:12:02.879Z,68.38
2023-04-02T02:14:31.363Z,67.91
2023-04-02T02:17:02.512Z,66.83
2023-04-02T02:19:37.062Z,67.47
2023-04-02T02:22:26.149Z,68.85
2023-04-02T02:24:54.636Z,68.98
2023-04-02T02:27:24.217Z,67.75
2023-04-02T02:30:04.155Z,68.15
2023-04-02T02:32:33.614Z,69.41
2023-04-02T02:35:20.260Z,68.69
2023-04-02T02:37:55.351Z,67.14
2023-04-02T02:40:30.657Z,66.90
2023-04-02T02:43:03.535Z,66.33
2023-04-02T02:45:38.037Z,68.88
2023-04-02T02:48:12.985Z,69.16
2023-04-02T02:50:45.790Z,69.43
2023-04-02T02:53:21.412Z,70.28
2023-04-02T02:55:54.043Z,70.21
2023-04-02T02:58:28.608Z,70.26
2023-04-02T03:01:18.499Z,68.15
2023-04-02T03:03:49.005Z,67.76
2023-04-02T03:06:17.782Z,68.57
2023-04-02T03:09:14.098Z,68.08
2023-04-02T03:11:57.436Z,68.96
2023-04-02T03:15:03.575Z,68.60
2023-04-02T03:17:46.724Z,70.73
2023-04-02T03:20:49.040Z,71.67
2023-04-02T03:23:27.552Z,70.25
2023-04-02T03:26:02.737Z,71.43
2023-04-02T03:28:33.560Z,69.61
2023-04-02T03:31:11.300Z,70.85
2023-04-02T03:33:43.719Z,70.55
2023-04-02T03:36:28.671Z,70.81
2023-04-02T03:39:11.496Z,69.00
2023-04-02T03:41:45.534Z,68.50
2023-04-02T03:44:44.870Z,67.07
2023-04-02T03:47:31.613Z,66.54
2023-04-02T03:50:06.298Z,67.86
2023-04-02T03:52:37.486Z,69.47
2023-04-02T03:55:19.465Z,68.72
2023-04-02T03:58:11.787Z,67.84
2023-04-02T04:01:02.083Z,67.40
2023-04-02T04:03:42.920Z,67.51
2023-04-02T04:06:20.201Z,67.64
2023-04-02T04:08:54.826Z,67.92
2023-04-02T04:11:37.889Z,68.58
2023-04-02T04:14:13.936Z,69.22
2023-04-02T04:16:54.202Z,69.27
2023-04-02T04:19:32.686Z,68.31
2023-04-02T04:22:11.113Z,69.60
2023-04-02T04:24:41.423Z,68.36
2023-04-02T04:27:34.740Z,69.03
2023-04-02T04:30:25.832Z,69.52
2023-04-02T04:33:04.160Z,68.89
2023-04-02T04:35:40.932Z,68.74
2023-04-02T04:38:15.831Z,70.39
2023-04-02T04:40:53.942Z,70.15
2023-04-02T04:43:40.872Z,69.27
2023-04-02T04:46:26.303Z,71.00
2023-04-02T04:49:17.303Z,70.18
2023-04-02T04:52:08.181Z,70.32
2023-04-02T04:54:39.263Z,70.41
2023-04-02T04:57:31.779Z,70.50
2023-04-02T05:00:29.253Z,70.74
2023-04-02T05:03:14.770Z,70.97
2023-04-02T05:05:42.550Z,69.97
2023-04-02T05:08:17.743Z,71.45
2023-04-02T05:11:00.438Z,70.21
2023-04-02T05:13:33.481Z,70.03
2023-04-02T05:16:20.507Z,69.38
2023-04-02T05:18:59.428Z,68.96
2023-04-02T05:21:44.088Z,70.28
2023-04-02T05:24:39.565Z,70.96
2023-04-02T05:27:21.381Z,70.23
2023-04-02T05:29:59.565Z,70.43
2023-04-02T05:32:34.842Z,70.55
2023-04-02T05:35:07.753Z,70.37
2023-04-02T05:37:40.695Z,69.81
2023-04-02T05:40:27.683Z,68.93
2023-04-02T05:42:56.637Z,69.01
2023-04-02T05:45:39.184Z,69.73
2023-04-02T05:48:21.468Z,69.93
2023-04-02T05:50:55.538Z,71.04
2023-04-02T05:53:40.292Z,70.79
2023-04-02T05:56:18.713Z,70.10
2023-04-02T05:58:56.461Z,68.47
2023-04-02T06:01:45.816Z,68.82
2023-04-02T06:04:20.573Z,69.26
2023-04-02T06:07:16.870Z,69.97
2023-04-02T06:10:03.725Z,70.16
2023-04-02T06:13:04.040Z,70.29
2023-04-02T06:15:38.684Z,70.42
2023-04-02T06:18:47.874Z,70.78
2023-04-02T06:21:18.665Z,71.19
2023-04-02T06:24:01.904Z,70.54
2023-04-02T06:26:38.573Z,70.32
2023-04-02T06:29:15.668Z,70.31
2023-04-02T06:31:52.584Z,70.14
2023-04-02T06:34:24.211Z,70.38
2023-04-02T06:37:04.444Z,69.78
2023-04-02T06:39:34.527Z,70.15
2023-04-02T06:42:22.137Z,70.18
2023-04-02T06:45:01.338Z,70.37
2023-04-02T06:48:15.848Z,68.68
2023-04-02T06:50:57.134Z,68.96
2023-04-02T06:53:38.239Z,69.19
2023-04-02T06:56:35.882Z,69.71
2023-04-02T06:59:04.827Z,69.25
2023-04-02T07:01:37.552Z,70.06
2023-04-02T07:04:05.597Z,70.20
2023-04-02T07:06:43.758Z,69.48
2023-04-02T07:09:13.645Z,69.07
2023-04-02T07:11:48.558Z,69.66
2023-04-02T07:14:20.614Z,70.69
2023-04-02T07:16:58.018Z,70.12
2023-04-02T07:19:25.151Z,68.95
2023-04-02T07:21:56.382Z,70.32
2023-04-02T07:24:26.226Z,69.59
2023-04-02T07:26:53.602Z,68.99
2023-04-02T07:29:21.242Z,69.49
2023-04-02T07:31:51.044Z,69.41
2023-04-02T07:34:20.978Z,68.54
2023-04-02T07:36:51.265Z,69.05
2023-04-02T07:39:20.910Z,68.37
2023-04-02T07:41:58.012Z,69.10
2023-04-02T07:44:25.074Z,68.64
2023-04-02T07:46:52.829Z,69.11
2023-04-02T07:49:19.873Z,68.64
2023-04-02T07:51:47.783Z,69.21
2023-04-02T07:54:14.904Z,68.30
2023-04-02T07:56:42.452Z,68.24
2023-04-02T07:59:10.780Z,67.47
2023-04-02T08:01:38.817Z,68.13
2023-04-02T08:04:08.375Z,69.19
2023-04-02T08:06:42.092Z,67.50
2023-04-02T08:09:32.026Z,67.79
2023-04-02T08:12:07.639Z,67.76
2023-04-02T08:14:34.727Z,66.82
2023-04-02T08:17:02.233Z,66.66
2023-04-02T08:19:29.873Z,67.64
2023-04-02T08:21:57.973Z,67.00
2023-04-02T08:24:28.337Z,66.40
2023-04-02T08:26:57.699Z,65.85
2023-04-02T08:29:25.726Z,66.10
2023-04-02T08:31:53.569Z,65.39
2023-04-02T08:34:20.820Z,65.52
2023-04-02T08:36:48.557Z,64.94
2023-04-02T08:39:19.249Z,65.39
2023-04-02T08:42:40.325Z,64.32
2023-04-02T08:45:24.199Z,64.53
2023-04-02T08:48:04.907Z,64.32
2023-04-02T08:50:38.228Z,64.10
2023-04-02T08:53:28.148Z,63.84
2023-04-02T08:56:06.108Z,63.60
2023-04-02T08:58:43.461Z,64.88
2023-04-02T09:01:48.337Z,64.51
2023-04-02T09:04:20.397Z,63.77
2023-04-02T09:06:50.352Z,64.30
2023-04-02T09:09:17.738Z,65.15
2023-04-02T09:12:05.577Z,66.19
2023-04-02T09:15:18.588Z,64.01
2023-04-02T09:18:19.291Z,63.71
2023-04-02T09:21:37.147Z,61.40
2023-04-02T09:24:05.616Z,64.02
2023-04-02T09:26:34.623Z,63.37
2023-04-02T09:29:12.804Z,63.40
2023-04-02T09:31:45.203Z,62.18
2023-04-02T09:34:36.996Z,63.30
2023-04-02T09:37:18.952Z,62.86
2023-04-02T09:39:46.585Z,62.36
2023-04-02T09:42:46.795Z,61.43
2023-04-02T09:45:24.286Z,61.30
2023-04-02T09:48:20.450Z,61.38
2023-04-02T09:50:47.853Z,60.72
2023-04-02T09:53:30.238Z,62.30
2023-04-02T09:56:14.292Z,62.31
2023-04-02T09:58:45.809Z,61.13
2023-04-02T10:01:29.629Z,60.40
2023-04-02T10:04:00.012Z,60.91
2023-04-02T10:06:29.736Z,60.64
2023-04-02T10:09:21.664Z,58.12
2023-04-02T10:11:52.206Z,58.97
2023-04-02T10:14:25.136Z,58.61
2023-04-02T10:17:07.970Z,59.57
2023-04-02T10:19:41.655Z,59.91
2023-04-02T10:22:21.129Z,60.70
2023-04-02T10:24:49.397Z,60.39
2023-04-02T10:27:55.121Z,59.72
2023-04-02T10:31:01.886Z,60.29
2023-04-02T10:33:37.472Z,60.96
2023-04-02T10:36:19.554Z,61.31
2023-04-02T10:39:05.228Z,59.34
2023-04-02T10:41:32.859Z,58.58
2023-04-02T10:44:16.694Z,59.01
2023-04-02T10:47:08.168Z,57.79
2023-04-02T10:49:50.910Z,59.33
2023-04-02T10:52:31.211Z,58.38
2023-04-02T10:55:04.764Z,58.47
2023-04-02T10:57:38.305Z,57.42
2023-04-02T11:00:08.263Z,57.77
2023-04-02T11:02:54.190Z,57.54
2023-04-02T11:05:45.938Z,58.06
2023-04-02T11:08:47.716Z,58.07
2023-04-02T11:11:19.216Z,58.46
2023-04-02T11:14:04.368Z,57.26
2023-04-02T11:16:34.352Z,58.34
2023-04-02T11:19:15.609Z,58.59
2023-04-02T11:21:58.055Z,57.54
2023-04-02T11:24:33.090Z,58.76
2023-04-02T11:27:14.469Z,57.39
2023-04-02T11:29:58.700Z,57.50
2023-04-02T11:32:32.535Z,57.27
2023-04-02T11:35:07.472Z,57.86
2023-04-02T11:37:39.848Z,57.15
2023-04-02T11:40:11.462Z,57.50
2023-04-02T11:42:41.896Z,56.53
2023-04-02T11:45:21.864Z,56.71
2023-04-02T11:48:02.077Z,56.08
2023-04-02T11:50:35.769Z,57.63
2023-04-02T11:53:06.772Z,57.41
2023-04-02T11:55:39.549Z,57.72
2023-04-02T11:58:29.451Z,57.74
2023-04-02T12:01:05.553Z,57.29
2023-04-02T12:03:47.854Z,58.35
2023-04-02T12:06:47.241Z,57.24
2023-04-02T12:09:33.359Z,57.71
2023-04-02T12:12:17.148Z,58.93
2023-04-02T12:15:01.933Z,58.34
2023-04-02T12:17:32.623Z,58.68
2023-04-02T12:20:22.878Z,60.02
2023-04-02T12:22:53.268Z,59.09
2023-04-02T12:25:31.476Z,59.95
2023-04-02T12:28:19.360Z,59.95
2023-04-02T12:30:49.001Z,59.82
2023-04-02T12:33:22.557Z,60.04
2023-04-02T12:35:55.030Z,59.89
2023-04-02T12:38:29.421Z,59.98
2023-04-02T12:41:04.661Z,60.01
2023-04-02T12:43:36.889Z,59.54
2023-04-02T12:46:08.387Z,60.66
2023-04-02T12:48:36.614Z,59.95
2023-04-02T12:51:06.735Z,61.37
2023-04-02T12:53:40.777Z,59.71
2023-04-02T12:56:18.597Z,60.43
2023-04-02T12:59:07.309Z,60.90
2023-04-02T13:01:34.557Z,60.05
2023-04-02T13:04:18.620Z,60.53
2023-04-02T13:06:52.404Z,59.98
2023-04-02T13:09:42.228Z,61.53
2023-04-02T13:12:45.153Z,60.89
2023-04-02T13:15:47.357Z,60.74
2023-04-02T13:18:24.328Z,61.86
2023-04-02T13:24:42.141Z,61.05
2023-04-02T13:27:15.445Z,61.35
2023-04-02T13:29:50.061Z,61.17
2023-04-02T13:32:52.572Z,60.26
2023-04-02T13:35:30.347Z,60.24
2023-04-02T13:38:06.392Z,61.26
2023-04-02T13:40:34.618Z,61.18
2023-04-02T13:43:03.511Z,60.89
2023-04-02T13:45:43.805Z,61.40
2023-04-02T13:48:23.584Z,59.72
2023-04-02T13:50:53.615Z,60.36
2023-04-02T13:53:33.714Z,59.93
2023-04-02T13:56:02.557Z,58.23
2023-04-02T13:58:31.189Z,59.04
2023-04-02T14:00:58.890Z,59.26
2023-04-02T14:03:37.537Z,59.29
2023-04-02T14:06:12.017Z,59.28
2023-04-02T14:09:10.557Z,59.21
2023-04-02T14:11:47.570Z,58.30
2023-04-02T14:14:43.627Z,58.20
2023-04-02T14:17:35.559Z,57.61
2023-04-02T14:20:25.660Z,58.24
2023-04-02T14:23:24.019Z,58.98
2023-04-02T14:26:10.219Z,59.10
2023-04-02T14:28:57.654Z,58.25
2023-04-02T14:32:15.620Z,59.30
2023-04-02T14:34:59.412Z,59.01
2023-04-02T14:38:56.819Z,58.52
2023-04-02T14:45:57.581Z,58.92
2023-04-02T14:49:34.271Z,59.79
2023-04-02T14:52:13.517Z,58.24
2023-04-02T14:54:55.617Z,58.61
2023-04-02T15:01:21.745Z,57.48
2023-04-02T15:04:07.089Z,59.82
2023-04-02T15:06:49.882Z,59.01
2023-04-02T15:09:39.360Z,58.53
2023-04-02T15:12:28.496Z,58.20
2023-04-02T15:15:46.373Z,59.38
2023-04-02T15:18:54.284Z,60.02
2023-04-02T15:22:25.846Z,59.39
2023-04-02T15:25:39.813Z,57.63
2023-04-02T15:28:42.428Z,58.82
2023-04-02T15:36:33.006Z,57.32
2023-04-02T15:39:26.048Z,56.80
2023-04-02T15:46:10.299Z,57.73
2023-04-02T15:48:41.854Z,58.41
2023-04-02T15:51:28.926Z,58.04
2023-04-02T15:54:18.691Z,59.11
2023-04-02T15:57:16.644Z,59.43
2023-04-02T16:00:13.070Z,60.14
2023-04-02T16:03:23.591Z,58.47
2023-04-02T16:06:34.033Z,59.59
2023-04-02T16:09:12.330Z,57.91
2023-04-02T16:11:40.586Z,58.36
2023-04-02T16:14:21.347Z,58.01
2023-04-02T16:16:52.594Z,57.62
2023-04-02T16:19:34.885Z,58.22
2023-04-02T16:22:31.702Z,58.41
2023-04-02T16:25:04.661Z,57.95
2023-04-02T16:32:53.058Z,56.73
2023-04-02T16:36:11.428Z,56.84
2023-04-02T16:39:15.514Z,56.21
2023-04-02T16:42:10.534Z,56.10
2023-04-02T16:45:19.289Z,56.48
2023-04-02T16:48:27.802Z,57.89
2023-04-02T16:51:24.118Z,57.18
2023-04-02T16:54:44.939Z,57.05
2023-04-02T16:58:02.070Z,57.29
2023-04-02T17:01:28.711Z,57.53
2023-04-02T17:04:09.004Z,56.61
2023-04-02T17:06:54.219Z,57.41
2023-04-02T17:09:37.829Z,56.47
2023-04-02T17:12:30.522Z,57.06
2023-04-02T17:15:24.580Z,57.25
2023-04-02T17:17:59.017Z,56.71
2023-04-02T17:20:27.299Z,56.17
2023-04-02T17:22:56.102Z,56.49
2023-04-02T17:25:32.992Z,57.00
2023-04-02T17:28:02.753Z,57.66
2023-04-02T17:31:01.801Z,57.00
2023-04-02T17:33:28.689Z,57.03
2023-04-02T17:35:59.599Z,58.00
2023-04-02T17:38:42.178Z,56.50
2023-04-02T17:41:47.908Z,57.65
2023-04-02T17:45:01.579Z,56.84
2023-04-02T17:47:47.433Z,56.33
2023-04-02T17:50:35.542Z,57.48
2023-04-02T17:53:13.246Z,57.49
2023-04-02T17:55:49.797Z,57.86
2023-04-02T17:58:22.915Z,56.62
2023-04-02T18:01:08.159Z,55.60
2023-04-02T18:03:55.739Z,57.65
2023-04-02T18:06:44.604Z,56.98
2023-04-02T18:09:25.833Z,57.00
2023-04-02T18:12:18.360Z,56.68
2023-04-02T18:15:09.533Z,56.92
2023-04-02T18:17:52.966Z,56.68
2023-04-02T18:20:20.316Z,57.64
2023-04-02T18:23:16.041Z,58.11
2023-04-02T18:25:52.143Z,57.50
2023-04-02T18:28:44.111Z,56.79
2023-04-02T18:31:38.041Z,58.38
2023-04-02T18:34:13.812Z,58.23
2023-04-02T18:37:01.435Z,59.02
2023-04-02T18:39:41.664Z,58.32
2023-04-02T18:42:15.070Z,57.64
2023-04-02T18:45:00.611Z,56.93
2023-04-02T18:47:46.742Z,57.29
2023-04-02T18:50:46.864Z,57.91
2023-04-02T18:53:17.954Z,58.22
2023-04-02T18:55:52.763Z,59.30
2023-04-02T18:58:37.010Z,58.52
2023-04-02T19:01:08.889Z,58.09
2023-04-02T19:03:41.730Z,57.02
2023-04-02T19:06:24.221Z,58.52
2023-04-02T19:09:17.099Z,58.57
2023-04-02T19:11:43.991Z,58.30
2023-04-02T19:14:14.393Z,58.52
2023-04-02T19:16:42.308Z,58.52
2023-04-02T19:19:14.145Z,57.58
2023-04-02T19:21:51.707Z,59.47
2023-04-02T19:24:56.903Z,58.78
2023-04-02T19:27:29.763Z,58.90
2023-04-02T19:30:15.562Z,58.83
2023-04-02T19:32:58.141Z,58.93
2023-04-02T19:35:54.293Z,59.47
2023-04-02T19:38:43.234Z,59.62
2023-04-02T19:41:48.628Z,58.85
2023-04-02T19:44:18.109Z,58.62
2023-04-02T19:46:45.966Z,59.11
2023-04-02T19:49:24.213Z,61.39
2023-04-02T19:52:01.201Z,59.62
2023-04-02T19:54:28.301Z,59.52
2023-04-02T19:57:03.110Z,58.42
2023-04-02T19:59:39.223Z,58.25
2023-04-02T20:02:16.037Z,57.87
2023-04-02T20:04:43.014Z,58.44
2023-04-02T20:07:13.876Z,59.02
2023-04-02T20:09:43.009Z,58.27
2023-04-02T20:12:10.063Z,58.26
2023-04-02T20:14:37.288Z,57.68
2023-04-02T20:17:04.211Z,57.15
2023-04-02T20:19:31.627Z,57.65
2023-04-02T20:21:59.311Z,56.96
2023-04-02T20:24:26.238Z,58.81
2023-04-02T20:26:53.252Z,58.65
2023-04-02T20:29:21.329Z,58.27
2023-04-02T20:31:48.665Z,59.23
2023-04-02T20:34:15.893Z,59.56
2023-04-02T20:36:49.644Z,58.95
2023-04-02T20:39:22.522Z,59.69
2023-04-02T20:41:49.393Z,59.43
2023-04-02T20:44:16.872Z,58.71
2023-04-02T20:46:44.207Z,59.40
2023-04-02T20:49:11.715Z,59.19
2023-04-02T20:51:40.852Z,58.48
2023-04-02T20:54:07.909Z,58.90
2023-04-02T20:56:35.087Z,59.07
2023-04-02T20:59:03.614Z,58.92
2023-04-02T21:01:31.668Z,57.64
2023-04-02T21:04:02.330Z,59.00
2023-04-02T21:06:36.151Z,58.88
2023-04-02T21:09:09.491Z,57.41
2023-04-02T21:11:44.732Z,57.99
2023-04-02T21:14:12.425Z,58.26
2023-04-02T21:16:40.155Z,59.31
2023-04-02T21:19:09.333Z,57.87
2023-04-02T21:21:39.686Z,58.59
2023-04-02T21:24:09.142Z,58.94
2023-04-02T21:26:39.640Z,57.86
2023-04-02T21:29:07.283Z,58.06
2023-04-02T21:31:39.000Z,58.30
2023-04-02T21:34:08.681Z,58.83
2023-04-02T21:36:39.632Z,58.16
2023-04-02T21:39:09.506Z,59.34
2023-04-02T21:41:39.355Z,57.77
2023-04-02T21:44:08.419Z,57.99
2023-04-02T21:46:38.617Z,57.27
2023-04-02T21:49:09.782Z,56.88
2023-04-02T21:51:38.726Z,58.05
2023-04-02T21:54:07.579Z,57.52
2023-04-02T21:56:39.229Z,57.74
2023-04-02T21:59:12.603Z,57.66
2023-04-02T22:01:45.979Z,57.42
2023-04-02T22:04:20.981Z,57.75
2023-04-02T22:06:48.476Z,58.49
2023-04-02T22:09:18.351Z,57.08
2023-04-02T22:11:48.808Z,56.73
2023-04-02T22:14:15.899Z,57.76
2023-04-02T22:16:43.833Z,59.11
2023-04-02T22:19:14.331Z,57.58
2023-04-02T22:21:42.004Z,57.50
2023-04-02T22:24:14.368Z,58.44
2023-04-02T22:26:41.926Z,57.52
2023-04-02T22:29:08.726Z,58.06
2023-04-02T22:31:35.952Z,58.44
2023-04-02T22:34:05.740Z,58.29
2023-04-02T22:36:33.372Z,58.58
2023-04-02T22:39:01.258Z,58.84
2023-04-02T22:41:29.393Z,58.98
2023-04-02T22:43:57.606Z,59.51
2023-04-02T22:46:26.798Z,59.30
2023-04-02T22:48:56.020Z,58.80
2023-04-02T22:51:24.228Z,57.61
2023-04-02T22:53:54.168Z,58.26
2023-04-02T22:56:25.268Z,57.77
2023-04-02T22:58:52.809Z,58.82
2023-04-02T23:01:23.995Z,57.94
2023-04-02T23:03:56.456Z,59.64
2023-04-02T23:06:25.495Z,58.77
2023-04-02T23:08:53.635Z,58.69
2023-04-02T23:11:24.243Z,58.16
2023-04-02T23:13:53.034Z,58.59
2023-04-02T23:16:24.419Z,57.13
2023-04-02T23:18:51.823Z,58.49
2023-04-02T23:21:20.222Z,57.57
2023-04-02T23:23:48.877Z,56.88
2023-04-02T23:26:16.999Z,57.49
2023-04-02T23:28:44.753Z,57.71
2023-04-02T23:31:16.983Z,57.56
2023-04-02T23:33:44.073Z,57.44
2023-04-02T23:36:15.172Z,56.48
2023-04-02T23:38:42.285Z,57.50
2023-04-02T23:41:14.900Z,57.30
2023-04-02T23:43:42.625Z,58.62
2023-04-02T23:46:12.792Z,58.19
2023-04-02T23:48:41.263Z,58.67
2023-04-02T23:51:08.006Z,58.25
2023-04-02T23:53:35.518Z,57.77
2023-04-02T23:56:02.528Z,59.66
2023-04-02T23:58:29.608Z,57.21
